Time;durP1;ratioP1;P1;durP2;ratioP2;P2;SDS_P1;SDS_P2;PMS_P1;PMS_P2;Temp;Humidity;BMP_temperature;BMP_pressure;BME280_temperature;BME280_humidity;BME280_pressure;Samples;Min_cycle;Max_cycle;Signal;HPM_P1;HPM_P2
2021/06/29 00:01:45;;;;;;;30.08;16.98;;;21.70;99.90;;;;;;5101048;28;20277;-74
2021/06/29 00:04:12;;;;;;;27.90;16.52;;;21.70;99.90;;;;;;5106896;28;20229;-74
2021/06/29 00:06:38;;;;;;;32.55;16.95;;;21.70;99.90;;;;;;5103987;27;20209;-75
2021/06/29 00:09:05;;;;;;;32.53;17.13;;;21.70;99.90;;;;;;5106197;27;20196;-75
2021/06/29 00:11:32;;;;;;;25.05;16.58;;;21.60;99.90;;;;;;5105697;28;20223;-74
2021/06/29 00:14:01;;;;;;;34.78;16.73;;;21.60;99.90;;;;;;5103719;28;20207;-75
2021/06/29 00:16:28;;;;;;;29.13;16.75;;;21.60;99.90;;;;;;5105529;28;20197;-74
2021/06/29 00:18:54;;;;;;;35.72;17.08;;;21.60;99.90;;;;;;5105119;28;20280;-74
2021/06/29 00:21:21;;;;;;;26.77;16.63;;;21.60;99.90;;;;;;5105028;28;20198;-76
2021/06/29 00:23:48;;;;;;;31.75;17.13;;;21.60;99.90;;;;;;5106125;28;20193;-75
2021/06/29 00:26:15;;;;;;;23.38;16.35;;;21.50;99.90;;;;;;5099174;28;20216;-74
2021/06/29 00:28:42;;;;;;;30.15;16.25;;;21.50;99.90;;;;;;5104634;28;20252;-72
2021/06/29 00:31:11;;;;;;;27.20;15.77;;;21.50;99.90;;;;;;5104795;28;20213;-75
2021/06/29 00:33:38;;;;;;;32.40;15.90;;;21.50;99.90;;;;;;5104811;27;20205;-74
2021/06/29 00:36:05;;;;;;;26.70;15.98;;;21.40;99.90;;;;;;5103946;28;20578;-73
2021/06/29 00:38:32;;;;;;;32.13;15.57;;;21.40;99.90;;;;;;5109609;28;21929;-75
2021/06/29 00:40:59;;;;;;;25.05;15.23;;;21.40;99.90;;;;;;5108236;28;20207;-76
2021/06/29 00:43:26;;;;;;;24.35;14.75;;;21.40;99.90;;;;;;5121753;27;20213;-75
2021/06/29 00:45:52;;;;;;;30.95;16.17;;;21.40;99.90;;;;;;5107749;28;20254;-76
2021/06/29 00:48:21;;;;;;;30.02;14.75;;;21.40;99.90;;;;;;5101886;28;20558;-75
2021/06/29 00:50:48;;;;;;;24.60;13.95;;;21.30;99.90;;;;;;5105846;28;20245;-74
2021/06/29 00:53:15;;;;;;;22.92;13.63;;;21.30;99.90;;;;;;5101667;28;20210;-75
2021/06/29 00:55:42;;;;;;;26.90;13.90;;;21.30;99.90;;;;;;5107740;28;20201;-75
2021/06/29 00:58:10;;;;;;;26.27;13.20;;;21.30;99.90;;;;;;5104502;28;20209;-75
2021/06/29 01:00:37;;;;;;;22.05;13.15;;;21.30;99.90;;;;;;5104240;28;20189;-74
2021/06/29 01:03:05;;;;;;;22.45;12.75;;;21.30;99.90;;;;;;5101754;28;20206;-75
2021/06/29 01:05:33;;;;;;;24.15;12.60;;;21.20;99.90;;;;;;5104780;28;20205;-74
2021/06/29 01:08:01;;;;;;;20.50;12.43;;;21.20;99.90;;;;;;5103990;28;20649;-75
2021/06/29 01:10:28;;;;;;;23.45;12.68;;;21.20;99.90;;;;;;5104576;28;20225;-75
2021/06/29 01:12:55;;;;;;;20.33;12.52;;;21.20;99.90;;;;;;5105258;28;20201;-73
2021/06/29 01:15:23;;;;;;;24.52;12.88;;;21.20;99.90;;;;;;5107866;28;20665;-75
2021/06/29 01:17:52;;;;;;;24.23;13.15;;;21.20;99.90;;;;;;5107104;28;20194;-74
2021/06/29 01:20:24;;;;;;;24.48;12.48;;;21.10;99.90;;;;;;5108185;27;20207;-75
2021/06/29 01:22:54;;;;;;;20.63;13.05;;;21.10;99.90;;;;;;5109612;27;20209;-75
2021/06/29 01:25:23;;;;;;;18.67;12.32;;;21.10;99.90;;;;;;5110343;27;20216;-74
2021/06/29 01:27:57;;;;;;;19.00;12.25;;;21.10;99.90;;;;;;5107987;27;20205;-74
2021/06/29 01:33:09;;;;;;;23.27;12.70;;;21.10;99.90;;;;;;5108213;28;20250;-74
2021/06/29 01:35:39;;;;;;;19.92;12.05;;;21.00;99.90;;;;;;5108426;28;20280;-75
2021/06/29 01:38:06;;;;;;;24.38;12.82;;;21.00;99.90;;;;;;5107281;28;20193;-74
2021/06/29 01:40:33;;;;;;;22.90;13.05;;;21.00;99.90;;;;;;5106140;27;20266;-74
2021/06/29 01:43:00;;;;;;;20.27;12.45;;;21.00;99.90;;;;;;5108429;27;20684;-74
2021/06/29 01:45:29;;;;;;;21.10;12.82;;;21.00;99.90;;;;;;5110579;28;20279;-75
2021/06/29 01:48:00;;;;;;;20.13;12.15;;;21.00;99.90;;;;;;5109363;27;20197;-74
2021/06/29 01:50:27;;;;;;;23.45;12.68;;;20.90;99.90;;;;;;5108528;28;20218;-74
2021/06/29 01:53:00;;;;;;;20.10;11.82;;;20.90;99.90;;;;;;5105473;28;20220;-74
2021/06/29 01:55:28;;;;;;;23.77;12.77;;;20.90;99.90;;;;;;5109102;28;20279;-73
2021/06/29 01:57:56;;;;;;;19.75;11.52;;;20.90;99.90;;;;;;5104206;27;20208;-76
2021/06/29 02:00:23;;;;;;;25.38;12.23;;;20.90;99.90;;;;;;5107685;28;20301;-75
2021/06/29 02:02:50;;;;;;;21.50;11.90;;;20.90;99.90;;;;;;5108549;27;20756;-74
2021/06/29 02:05:17;;;;;;;19.38;11.15;;;20.90;99.90;;;;;;5110757;27;20219;-74
2021/06/29 02:07:45;;;;;;;20.40;10.63;;;20.90;99.90;;;;;;5107017;27;20203;-76
2021/06/29 02:10:15;;;;;;;19.35;11.10;;;20.80;99.90;;;;;;5108824;28;20224;-74
2021/06/29 02:12:43;;;;;;;21.92;11.48;;;20.80;99.90;;;;;;5105656;28;20205;-75
2021/06/29 02:15:11;;;;;;;21.38;11.90;;;20.90;99.90;;;;;;5113653;27;20216;-74
2021/06/29 02:17:38;;;;;;;21.40;11.95;;;20.80;99.90;;;;;;5111577;27;20211;-75
2021/06/29 02:20:06;;;;;;;20.17;11.52;;;20.80;99.90;;;;;;5108805;27;20243;-73
2021/06/29 02:22:34;;;;;;;22.85;11.23;;;20.80;99.90;;;;;;5109207;27;20209;-74
2021/06/29 02:25:01;;;;;;;23.13;11.05;;;20.80;99.90;;;;;;5107799;27;20205;-74
2021/06/29 02:27:29;;;;;;;19.73;10.48;;;20.80;99.90;;;;;;5107776;27;20205;-74
2021/06/29 02:29:57;;;;;;;20.67;10.73;;;20.80;99.90;;;;;;5104933;27;20217;-75
2021/06/29 02:32:26;;;;;;;21.17;10.90;;;20.80;99.90;;;;;;5107569;27;20650;-74
2021/06/29 02:34:53;;;;;;;27.08;11.30;;;20.80;99.90;;;;;;5100683;28;20230;-75
2021/06/29 02:37:20;;;;;;;21.25;11.25;;;20.70;99.90;;;;;;5101649;28;20212;-74
2021/06/29 02:39:47;;;;;;;20.77;11.18;;;20.70;99.90;;;;;;5112600;27;20204;-74
2021/06/29 02:42:14;;;;;;;24.63;10.98;;;20.80;99.90;;;;;;5104828;27;20215;-75
2021/06/29 02:44:42;;;;;;;21.67;10.88;;;20.80;99.90;;;;;;5106061;28;20280;-74
2021/06/29 02:47:11;;;;;;;20.40;10.80;;;20.70;99.90;;;;;;5101343;28;20607;-74
2021/06/29 02:49:38;;;;;;;24.60;11.25;;;20.70;99.90;;;;;;5104446;28;20220;-73
2021/06/29 02:52:06;;;;;;;22.88;11.13;;;20.70;99.90;;;;;;5101888;28;20226;-76
2021/06/29 02:54:33;;;;;;;21.65;11.10;;;20.70;99.90;;;;;;5105809;27;20201;-74
2021/06/29 02:57:00;;;;;;;24.42;10.55;;;20.70;99.90;;;;;;5112561;27;21251;-75
2021/06/29 02:59:27;;;;;;;22.80;10.75;;;20.70;99.90;;;;;;5108276;28;20197;-74
2021/06/29 03:01:55;;;;;;;26.33;11.02;;;20.70;99.90;;;;;;5104963;28;20197;-75
2021/06/29 03:04:22;;;;;;;24.13;11.27;;;20.70;99.90;;;;;;5106047;28;20212;-75
2021/06/29 03:06:49;;;;;;;24.70;10.50;;;20.60;99.90;;;;;;5107655;28;20206;-76
2021/06/29 03:09:16;;;;;;;17.63;10.43;;;20.70;99.90;;;;;;5103511;28;20201;-74
2021/06/29 03:11:43;;;;;;;21.58;10.82;;;20.60;99.90;;;;;;5107139;27;20223;-74
2021/06/29 03:14:10;;;;;;;22.88;10.70;;;20.60;99.90;;;;;;5106161;28;20201;-74
2021/06/29 03:16:37;;;;;;;22.75;10.63;;;20.60;99.90;;;;;;5101677;28;20205;-74
2021/06/29 03:19:05;;;;;;;24.35;10.57;;;20.60;99.90;;;;;;5105690;27;20635;-76
2021/06/29 03:21:32;;;;;;;23.77;10.45;;;20.60;99.90;;;;;;5103099;28;20186;-74
2021/06/29 03:23:59;;;;;;;18.25;10.57;;;20.60;99.90;;;;;;5097975;28;20658;-74
2021/06/29 03:26:26;;;;;;;26.67;11.02;;;20.60;99.90;;;;;;5115243;27;20244;-74
2021/06/29 03:28:53;;;;;;;23.55;10.63;;;20.60;99.90;;;;;;5102677;28;20221;-74
2021/06/29 03:31:20;;;;;;;22.13;10.30;;;20.50;99.90;;;;;;5106623;27;20270;-75
2021/06/29 03:33:47;;;;;;;19.00;10.00;;;20.50;99.90;;;;;;5111274;27;20224;-74
2021/06/29 03:36:15;;;;;;;24.08;11.30;;;20.50;99.90;;;;;;5111504;27;20205;-75
2021/06/29 03:38:42;;;;;;;22.88;10.85;;;20.50;99.90;;;;;;5103982;27;20212;-74
2021/06/29 03:41:09;;;;;;;23.60;10.32;;;20.50;99.90;;;;;;5107545;27;20649;-75
2021/06/29 03:43:38;;;;;;;19.67;10.70;;;20.50;99.90;;;;;;5104869;27;20277;-74
2021/06/29 03:46:06;;;;;;;23.08;9.80;;;20.50;99.90;;;;;;5109440;27;20283;-75
2021/06/29 03:48:33;;;;;;;25.08;9.82;;;20.50;99.90;;;;;;5099841;28;20232;-75
2021/06/29 03:51:00;;;;;;;26.48;10.50;;;20.50;99.90;;;;;;5105813;28;20220;-75
2021/06/29 03:53:28;;;;;;;24.50;10.10;;;20.50;99.90;;;;;;5095403;28;20677;-75
2021/06/29 03:55:55;;;;;;;22.73;10.27;;;20.50;99.90;;;;;;5109798;27;20208;-74
2021/06/29 03:58:22;;;;;;;23.30;9.90;;;20.50;99.90;;;;;;5103599;27;20209;-75
2021/06/29 04:00:49;;;;;;;20.73;10.18;;;20.50;99.90;;;;;;5107717;27;20201;-75
2021/06/29 04:03:16;;;;;;;20.95;10.48;;;20.50;99.90;;;;;;5102274;27;20295;-75
2021/06/29 04:05:43;;;;;;;24.35;10.25;;;20.50;99.90;;;;;;5103848;27;20646;-75
2021/06/29 04:08:10;;;;;;;26.33;11.10;;;20.50;99.90;;;;;;5100830;28;20209;-75
2021/06/29 04:10:48;;;;;;;24.95;10.02;;;20.50;99.90;;;;;;5105097;27;20289;-75
2021/06/29 04:13:15;;;;;;;22.02;10.25;;;20.50;99.90;;;;;;5103303;27;20200;-74
2021/06/29 04:15:41;;;;;;;24.35;9.73;;;20.50;99.90;;;;;;5100347;28;20537;-75
2021/06/29 04:18:10;;;;;;;26.85;9.05;;;20.50;99.90;;;;;;5105347;28;20209;-75
2021/06/29 04:20:37;;;;;;;21.17;8.90;;;20.50;99.90;;;;;;5101624;28;20205;-75
2021/06/29 04:23:05;;;;;;;27.50;8.80;;;20.50;99.90;;;;;;5106709;28;20205;-75
2021/06/29 04:25:32;;;;;;;18.50;8.27;;;20.50;99.90;;;;;;5113156;27;20216;-74
2021/06/29 04:28:00;;;;;;;18.83;8.55;;;20.40;99.90;;;;;;5104248;28;20189;-74
2021/06/29 04:30:27;;;;;;;25.58;9.05;;;20.50;99.90;;;;;;5105098;28;20201;-75
2021/06/29 04:32:54;;;;;;;23.40;8.68;;;20.50;99.90;;;;;;5104462;28;20197;-75
2021/06/29 04:35:21;;;;;;;26.23;8.98;;;20.50;99.90;;;;;;5107092;28;20195;-74
2021/06/29 04:37:48;;;;;;;27.73;8.57;;;20.50;99.90;;;;;;5102758;28;20751;-75
2021/06/29 04:40:16;;;;;;;20.27;9.43;;;20.50;99.90;;;;;;5104266;28;20211;-74
2021/06/29 04:42:43;;;;;;;22.65;8.80;;;20.50;99.90;;;;;;5104915;28;20206;-75
2021/06/29 04:45:13;;;;;;;21.92;9.00;;;20.40;99.90;;;;;;5106416;28;20213;-74
2021/06/29 04:47:45;;;;;;;23.77;8.35;;;20.50;99.90;;;;;;5102730;28;20283;-74
2021/06/29 04:50:13;;;;;;;28.38;9.10;;;20.40;99.90;;;;;;5105422;28;20282;-75
2021/06/29 04:52:40;;;;;;;31.70;9.70;;;20.40;99.90;;;;;;5107161;28;20224;-73
2021/06/29 04:55:08;;;;;;;21.60;9.30;;;20.40;99.90;;;;;;5101248;28;20204;-73
2021/06/29 04:57:35;;;;;;;28.00;8.48;;;20.40;99.90;;;;;;5106103;27;20197;-75
2021/06/29 05:00:06;;;;;;;21.90;8.95;;;20.40;99.90;;;;;;5100857;27;20198;-74
2021/06/29 05:02:34;;;;;;;24.20;8.52;;;20.40;99.90;;;;;;5106032;28;20231;-72
2021/06/29 05:05:01;;;;;;;23.05;8.70;;;20.40;99.90;;;;;;5108942;28;20201;-71
2021/06/29 05:07:28;;;;;;;23.02;8.85;;;20.40;99.90;;;;;;5109835;28;20226;-73
2021/06/29 05:09:55;;;;;;;21.75;8.73;;;20.40;99.90;;;;;;5106923;28;20201;-74
2021/06/29 05:12:22;;;;;;;21.67;9.30;;;20.40;99.90;;;;;;5108148;28;20320;-73
2021/06/29 05:14:49;;;;;;;26.75;9.07;;;20.40;99.90;;;;;;5109429;27;20287;-72
2021/06/29 05:17:16;;;;;;;27.50;9.13;;;20.40;99.90;;;;;;5109281;27;20197;-73
2021/06/29 05:19:44;;;;;;;19.98;8.05;;;20.40;99.90;;;;;;5111932;27;20673;-71
2021/06/29 05:22:11;;;;;;;24.20;8.50;;;20.40;99.90;;;;;;5109000;28;20201;-73
2021/06/29 05:24:38;;;;;;;29.92;9.18;;;20.40;99.90;;;;;;5110123;27;20212;-72
2021/06/29 05:27:06;;;;;;;22.60;8.52;;;20.40;99.90;;;;;;5108941;27;20201;-74
2021/06/29 05:29:33;;;;;;;26.70;9.15;;;20.40;99.90;;;;;;5108524;27;20704;-74
2021/06/29 05:32:00;;;;;;;19.25;7.95;;;20.40;99.90;;;;;;5105163;27;20213;-72
2021/06/29 05:34:26;;;;;;;20.10;8.40;;;20.40;99.90;;;;;;5102193;28;20201;-71
2021/06/29 05:36:55;;;;;;;21.63;8.55;;;20.40;99.90;;;;;;5104798;28;20296;-73
2021/06/29 05:39:22;;;;;;;22.75;8.07;;;20.40;99.90;;;;;;5107347;27;20289;-70
2021/06/29 05:41:49;;;;;;;24.08;8.45;;;20.40;99.90;;;;;;5107218;27;20209;-72
2021/06/29 05:44:16;;;;;;;25.48;8.75;;;20.40;99.90;;;;;;5106144;27;20283;-72
2021/06/29 05:46:43;;;;;;;22.15;8.70;;;20.40;99.90;;;;;;5107268;27;20228;-71
2021/06/29 05:49:12;;;;;;;23.08;8.55;;;20.40;99.90;;;;;;5105376;27;20201;-73
2021/06/29 05:51:43;;;;;;;21.42;8.23;;;20.40;99.90;;;;;;5109979;27;20222;-77
2021/06/29 05:54:11;;;;;;;25.73;8.25;;;20.40;99.90;;;;;;5110266;27;20216;-75
2021/06/29 05:56:40;;;;;;;19.67;8.65;;;20.40;99.90;;;;;;5106243;27;20193;-74
2021/06/29 05:59:07;;;;;;;21.35;9.07;;;20.40;99.90;;;;;;5103515;28;20212;-74
2021/06/29 06:01:33;;;;;;;20.33;8.23;;;20.40;99.90;;;;;;5105335;28;20201;-74
2021/06/29 06:04:00;;;;;;;23.88;8.15;;;20.40;99.90;;;;;;5103574;28;20208;-72
2021/06/29 06:06:27;;;;;;;23.73;9.00;;;20.50;99.90;;;;;;5109391;27;20690;-76
2021/06/29 06:08:54;;;;;;;21.83;8.50;;;20.50;99.90;;;;;;5111163;27;20664;-75
2021/06/29 06:11:22;;;;;;;22.60;8.90;;;20.50;99.90;;;;;;5112459;27;20201;-76
2021/06/29 06:13:49;;;;;;;19.15;9.23;;;20.50;99.90;;;;;;5106953;27;20276;-73
2021/06/29 06:16:16;;;;;;;20.05;8.75;;;20.50;99.90;;;;;;5106238;28;20649;-75
2021/06/29 06:18:43;;;;;;;26.00;8.55;;;20.50;99.90;;;;;;5106875;28;20283;-78
2021/06/29 06:21:11;;;;;;;22.50;8.95;;;20.50;99.90;;;;;;5112777;27;20205;-74
2021/06/29 06:23:38;;;;;;;28.17;9.45;;;20.50;99.90;;;;;;5101037;27;21480;-72
2021/06/29 06:26:05;;;;;;;26.38;9.70;;;20.50;99.90;;;;;;5109752;27;20205;-73
2021/06/29 06:28:34;;;;;;;31.05;10.43;;;20.50;99.90;;;;;;5105712;28;20697;-73
2021/06/29 06:31:01;;;;;;;33.28;14.90;;;20.50;99.90;;;;;;5109310;27;20198;-73
2021/06/29 06:33:28;;;;;;;25.70;13.70;;;20.60;99.90;;;;;;5107732;28;20939;-74
2021/06/29 06:35:55;;;;;;;29.35;14.45;;;20.60;99.90;;;;;;5102845;28;20201;-74
2021/06/29 06:38:22;;;;;;;26.52;13.60;;;20.60;99.90;;;;;;5106475;27;20197;-72
2021/06/29 06:40:49;;;;;;;29.63;14.13;;;20.60;99.90;;;;;;5106083;27;20193;-73
2021/06/29 06:43:16;;;;;;;28.13;12.68;;;20.60;99.90;;;;;;5103985;28;20300;-74
2021/06/29 06:45:44;;;;;;;31.85;13.45;;;20.60;99.90;;;;;;5099795;27;21025;-73
2021/06/29 06:48:11;;;;;;;30.73;13.82;;;20.50;99.90;;;;;;5105882;27;20656;-74
2021/06/29 06:50:38;;;;;;;35.97;14.88;;;20.50;99.90;;;;;;5103654;27;20208;-73
2021/06/29 06:53:05;;;;;;;33.17;15.50;;;20.50;99.90;;;;;;5105515;27;20233;-71
2021/06/29 06:55:32;;;;;;;37.63;18.60;;;20.60;99.90;;;;;;5105876;28;20229;-71
2021/06/29 06:57:59;;;;;;;40.58;17.13;;;20.50;99.90;;;;;;5109467;27;20203;-72
2021/06/29 07:00:29;;;;;;;31.77;18.67;;;20.50;99.90;;;;;;5107639;28;20197;-73
2021/06/29 07:02:57;;;;;;;46.58;19.70;;;20.50;99.90;;;;;;5106605;27;20198;-74
2021/06/29 07:05:25;;;;;;;45.92;20.83;;;20.50;99.90;;;;;;5103317;27;20209;-73
2021/06/29 07:07:52;;;;;;;39.08;19.92;;;20.50;99.90;;;;;;5110389;27;20229;-72
2021/06/29 07:10:19;;;;;;;31.00;18.38;;;20.60;99.90;;;;;;5104498;28;20202;-73
2021/06/29 07:12:46;;;;;;;30.63;17.42;;;20.50;99.90;;;;;;5108306;27;20228;-72
2021/06/29 07:15:13;;;;;;;34.63;18.45;;;20.50;99.90;;;;;;5106252;28;20335;-73
2021/06/29 07:17:39;;;;;;;38.33;19.65;;;20.60;99.90;;;;;;5110588;27;20204;-71
2021/06/29 07:20:09;;;;;;;43.33;20.15;;;20.60;99.90;;;;;;5112116;27;20208;-73
2021/06/29 07:22:37;;;;;;;37.53;20.40;;;20.60;99.90;;;;;;5106692;28;20300;-72
2021/06/29 07:25:05;;;;;;;40.53;20.13;;;20.60;99.90;;;;;;5109644;27;20203;-72
2021/06/29 07:27:33;;;;;;;43.30;21.52;;;20.60;99.90;;;;;;5106346;27;20555;-71
2021/06/29 07:29:59;;;;;;;43.72;22.88;;;20.60;99.90;;;;;;5103718;28;20786;-72
2021/06/29 07:32:28;;;;;;;41.05;21.40;;;20.60;99.90;;;;;;5110086;27;20229;-74
2021/06/29 07:34:55;;;;;;;45.65;22.13;;;20.50;99.90;;;;;;5107402;27;20210;-72
2021/06/29 07:37:23;;;;;;;49.90;22.98;;;20.50;99.90;;;;;;5107724;27;20201;-73
2021/06/29 07:39:50;;;;;;;43.42;20.50;;;20.60;99.90;;;;;;5105480;28;20208;-70
2021/06/29 07:42:17;;;;;;;40.13;18.40;;;20.60;99.90;;;;;;5107253;28;20695;-72
2021/06/29 07:44:44;;;;;;;34.88;18.02;;;20.50;99.90;;;;;;5105706;28;20220;-72
2021/06/29 07:47:11;;;;;;;34.47;16.70;;;20.50;99.90;;;;;;5105190;27;20209;-71
2021/06/29 07:49:38;;;;;;;35.00;17.17;;;20.50;99.90;;;;;;5104900;27;20213;-73
2021/06/29 07:52:05;;;;;;;31.50;16.35;;;20.50;99.90;;;;;;5102918;27;20216;-72
2021/06/29 07:54:33;;;;;;;35.47;16.55;;;20.50;99.90;;;;;;5103940;28;20204;-72
2021/06/29 07:57:00;;;;;;;30.80;16.08;;;20.50;99.90;;;;;;5102113;28;20205;-72
2021/06/29 07:59:28;;;;;;;37.10;15.90;;;20.50;99.90;;;;;;5107048;28;20204;-75
2021/06/29 08:01:55;;;;;;;38.58;16.42;;;20.50;99.90;;;;;;5104679;27;20198;-73
2021/06/29 08:04:22;;;;;;;33.53;16.52;;;20.50;99.90;;;;;;5103021;28;20201;-72
2021/06/29 08:06:49;;;;;;;34.65;16.75;;;20.50;99.90;;;;;;5101974;28;20201;-74
2021/06/29 08:09:15;;;;;;;37.42;16.80;;;20.50;99.90;;;;;;5105397;28;20216;-72
2021/06/29 08:11:44;;;;;;;33.08;15.75;;;20.50;99.90;;;;;;5104563;28;20201;-72
2021/06/29 08:14:11;;;;;;;28.25;14.70;;;20.50;99.90;;;;;;5104299;28;20201;-73
2021/06/29 08:16:38;;;;;;;28.02;12.82;;;20.50;99.90;;;;;;5105628;27;20204;-73
2021/06/29 08:19:05;;;;;;;25.52;12.75;;;20.50;99.90;;;;;;5104844;27;20197;-72
2021/06/29 08:21:32;;;;;;;22.55;12.25;;;20.50;99.90;;;;;;5102652;28;20198;-73
2021/06/29 08:23:59;;;;;;;26.95;12.50;;;20.50;99.90;;;;;;5106351;28;20189;-73
2021/06/29 08:26:25;;;;;;;23.00;12.18;;;20.50;99.90;;;;;;5101975;28;20193;-75
2021/06/29 08:28:54;;;;;;;25.17;11.93;;;20.50;99.90;;;;;;5107815;28;20224;-72
2021/06/29 08:31:21;;;;;;;28.98;12.88;;;20.50;99.90;;;;;;5103440;28;20208;-74
2021/06/29 08:33:49;;;;;;;28.67;12.05;;;20.50;99.90;;;;;;5107345;28;20240;-74
2021/06/29 08:36:17;;;;;;;30.38;13.07;;;20.50;99.90;;;;;;5103957;28;20717;-74
2021/06/29 08:38:44;;;;;;;25.88;12.93;;;20.50;99.90;;;;;;5107880;28;20255;-72
2021/06/29 08:41:12;;;;;;;24.42;12.23;;;20.50;99.90;;;;;;5105246;28;20668;-72
2021/06/29 08:43:40;;;;;;;33.45;13.48;;;20.50;99.90;;;;;;5103294;28;20205;-74
2021/06/29 08:46:08;;;;;;;35.05;13.55;;;20.50;99.90;;;;;;5099627;28;20200;-75
2021/06/29 08:48:35;;;;;;;31.42;13.88;;;20.50;99.90;;;;;;5106542;28;20227;-72
2021/06/29 08:51:04;;;;;;;30.25;14.63;;;20.50;99.90;;;;;;5105445;28;20211;-75
2021/06/29 08:53:32;;;;;;;30.35;14.75;;;20.50;99.90;;;;;;5105062;28;20213;-76
2021/06/29 08:56:00;;;;;;;35.17;16.35;;;20.50;99.90;;;;;;5101904;28;20209;-75
2021/06/29 08:58:28;;;;;;;41.35;19.52;;;20.50;99.90;;;;;;5103973;28;20279;-76
2021/06/29 09:00:56;;;;;;;38.28;20.10;;;20.50;99.90;;;;;;5102395;28;20753;-74
2021/06/29 09:03:25;;;;;;;48.08;23.40;;;20.50;99.90;;;;;;5107058;28;20216;-74
2021/06/29 09:05:53;;;;;;;49.35;24.27;;;20.50;99.90;;;;;;5105099;28;20216;-75
2021/06/29 09:08:21;;;;;;;51.47;25.20;;;20.50;99.90;;;;;;5108241;27;20201;-74
2021/06/29 09:11:07;;;;;;;45.70;24.55;;;20.50;99.90;;;;;;5104434;27;20246;-73
2021/06/29 09:13:34;;;;;;;52.83;26.63;;;20.50;99.90;;;;;;5105595;28;20213;-74
2021/06/29 09:16:01;;;;;;;53.85;26.33;;;20.50;99.90;;;;;;5106797;28;20198;-73
2021/06/29 09:18:31;;;;;;;48.50;24.85;;;20.50;99.90;;;;;;5105359;28;20197;-73
2021/06/29 09:21:00;;;;;;;49.13;23.65;;;20.60;99.90;;;;;;5104703;28;20236;-72
2021/06/29 09:23:30;;;;;;;49.78;23.27;;;20.60;99.90;;;;;;5104590;28;20190;-72
2021/06/29 09:25:59;;;;;;;47.10;22.63;;;20.60;99.90;;;;;;5100039;28;20193;-73
2021/06/29 09:28:29;;;;;;;46.03;22.25;;;20.60;99.90;;;;;;5100884;28;20233;-72
2021/06/29 09:30:59;;;;;;;42.03;22.77;;;20.70;99.90;;;;;;5103499;28;20198;-72
2021/06/29 09:33:27;;;;;;;47.88;21.83;;;20.70;99.90;;;;;;5106348;28;20234;-74
2021/06/29 09:35:58;;;;;;;37.67;19.13;;;20.60;99.90;;;;;;5105263;28;20285;-74
2021/06/29 09:38:27;;;;;;;32.75;18.58;;;20.60;99.90;;;;;;5110300;27;20216;-73
2021/06/29 09:40:58;;;;;;;33.08;17.55;;;20.60;99.90;;;;;;5106105;27;20201;-70
2021/06/29 09:43:28;;;;;;;29.40;17.52;;;20.60;99.90;;;;;;5107884;27;20254;-73
2021/06/29 09:45:56;;;;;;;28.23;15.45;;;20.60;99.90;;;;;;5106413;28;20197;-74
2021/06/29 09:48:35;;;;;;;23.77;13.57;;;20.60;99.90;;;;;;5109108;27;20201;-74
2021/06/29 09:51:07;;;;;;;22.60;13.20;;;20.60;99.90;;;;;;5108225;28;20675;-73
2021/06/29 09:53:39;;;;;;;26.80;14.70;;;20.60;99.90;;;;;;5107856;27;20236;-72
2021/06/29 09:56:11;;;;;;;34.15;17.63;;;20.70;99.90;;;;;;5106478;28;20665;-73
2021/06/29 09:58:39;;;;;;;39.25;20.50;;;20.60;99.90;;;;;;5109122;27;20688;-72
2021/06/29 10:01:07;;;;;;;38.72;20.17;;;20.70;99.90;;;;;;5106385;28;20710;-72
2021/06/29 10:03:35;;;;;;;40.95;20.63;;;20.70;99.90;;;;;;5105741;27;20206;-74
2021/06/29 10:06:10;;;;;;;34.58;18.60;;;20.70;99.90;;;;;;5103786;27;20199;-74
2021/06/29 10:08:38;;;;;;;25.70;13.45;;;20.70;99.90;;;;;;5105862;28;20215;-74
2021/06/29 10:11:21;;;;;;;25.60;12.43;;;20.60;99.90;;;;;;5111455;27;20201;-71
2021/06/29 10:13:54;;;;;;;28.13;12.43;;;20.60;99.90;;;;;;5105018;28;20264;-70
2021/06/29 10:16:23;;;;;;;24.92;12.75;;;20.60;99.90;;;;;;5106304;27;20657;-72
2021/06/29 10:19:01;;;;;;;29.15;13.65;;;20.60;99.90;;;;;;5108270;27;20669;-70
2021/06/29 10:21:31;;;;;;;29.52;12.90;;;20.60;99.90;;;;;;5105630;27;20232;-72
2021/06/29 10:24:00;;;;;;;46.40;14.55;;;20.50;99.90;;;;;;5107763;27;20197;-72
2021/06/29 10:26:28;;;;;;;22.95;12.20;;;20.50;99.90;;;;;;5105764;27;20587;-72
2021/06/29 10:28:56;;;;;;;27.80;12.55;;;20.50;99.90;;;;;;5106325;28;20610;-71
2021/06/29 10:31:25;;;;;;;19.95;10.23;;;20.50;99.90;;;;;;5108900;27;20212;-73
2021/06/29 10:33:53;;;;;;;20.15;9.02;;;20.40;99.90;;;;;;5105309;28;20223;-72
2021/06/29 10:36:21;;;;;;;26.35;8.52;;;20.40;99.90;;;;;;5110254;27;20205;-71
2021/06/29 10:38:51;;;;;;;23.85;8.70;;;20.40;99.90;;;;;;5105183;28;20706;-75
2021/06/29 10:41:21;;;;;;;22.40;7.82;;;20.40;99.90;;;;;;5109304;28;20204;-72
2021/06/29 10:43:49;;;;;;;20.73;7.20;;;20.40;99.90;;;;;;5108367;27;20238;-72
2021/06/29 10:46:31;;;;;;;25.02;8.10;;;20.40;99.90;;;;;;5109257;27;20216;-72
2021/06/29 10:49:19;;;;;;;18.63;7.07;;;20.40;99.90;;;;;;5106476;27;20205;-72
2021/06/29 10:51:46;;;;;;;18.45;7.65;;;20.40;99.90;;;;;;5106568;27;20228;-72
2021/06/29 10:54:41;;;;;;;14.70;7.10;;;20.40;99.90;;;;;;5108030;28;20209;-71
2021/06/29 10:57:11;;;;;;;19.00;7.43;;;20.40;99.90;;;;;;5107396;27;20206;-75
2021/06/29 10:59:40;;;;;;;16.40;8.50;;;20.50;99.90;;;;;;5105685;28;20200;-73
2021/06/29 11:02:07;;;;;;;26.42;7.88;;;20.50;99.90;;;;;;5104026;28;20690;-73
2021/06/29 11:04:54;;;;;;;18.80;7.07;;;20.50;99.90;;;;;;5105773;28;20258;-74
2021/06/29 11:07:41;;;;;;;18.85;7.45;;;20.50;99.90;;;;;;5106491;28;20201;-74
2021/06/29 11:10:12;;;;;;;14.18;7.07;;;20.60;99.90;;;;;;5104130;27;20200;-72
2021/06/29 11:12:47;;;;;;;12.00;6.63;;;20.60;99.90;;;;;;5108193;28;20212;-73
2021/06/29 11:15:15;;;;;;;16.85;6.15;;;20.60;99.90;;;;;;5105751;28;20547;-75
2021/06/29 11:18:00;;;;;;;12.35;6.15;;;20.60;99.90;;;;;;5106931;28;20201;-74
2021/06/29 11:20:37;;;;;;;10.80;6.28;;;20.70;99.90;;;;;;5106018;28;20536;-72
2021/06/29 11:23:05;;;;;;;16.10;6.15;;;20.70;99.90;;;;;;5107366;27;20217;-74
2021/06/29 11:25:40;;;;;;;13.75;6.32;;;20.70;99.90;;;;;;5106227;28;20208;-73
2021/06/29 11:28:10;;;;;;;11.85;6.70;;;20.80;99.90;;;;;;5103825;28;20201;-72
2021/06/29 11:31:01;;;;;;;12.70;6.63;;;20.80;99.90;;;;;;5103709;27;20202;-72
2021/06/29 11:33:47;;;;;;;16.35;6.45;;;20.90;99.90;;;;;;5104890;27;20586;-74
2021/06/29 11:36:50;;;;;;;10.75;5.65;;;20.80;99.90;;;;;;5102067;27;20201;-74
2021/06/29 11:39:37;;;;;;;10.15;5.47;;;20.90;99.90;;;;;;5105265;28;20204;-72
2021/06/29 11:42:21;;;;;;;9.02;5.35;;;20.90;99.90;;;;;;5107008;27;20228;-75
2021/06/29 11:44:51;;;;;;;11.57;5.75;;;20.90;99.90;;;;;;5106675;27;20284;-73
2021/06/29 11:47:20;;;;;;;9.13;5.18;;;20.90;99.90;;;;;;5105237;28;20287;-75
2021/06/29 11:50:25;;;;;;;9.43;4.78;;;20.80;99.90;;;;;;5105356;28;20216;-74
2021/06/29 11:52:52;;;;;;;9.05;4.80;;;20.80;99.90;;;;;;5106718;27;20209;-74
2021/06/29 11:55:39;;;;;;;6.35;3.63;;;20.80;99.90;;;;;;5101784;28;20223;-74
2021/06/29 11:58:25;;;;;;;4.57;3.30;;;20.80;99.90;;;;;;5103331;28;20215;-74
2021/06/29 12:00:52;;;;;;;3.42;2.95;;;20.70;99.90;;;;;;5103725;28;20201;-73
2021/06/29 12:03:20;;;;;;;4.97;3.05;;;20.70;99.90;;;;;;5105182;28;20212;-74
2021/06/29 12:05:47;;;;;;;4.70;2.65;;;20.70;99.90;;;;;;5105891;27;20209;-75
2021/06/29 12:08:14;;;;;;;3.42;2.28;;;20.60;99.90;;;;;;5106408;28;20208;-73
2021/06/29 12:10:44;;;;;;;3.00;2.05;;;20.70;99.90;;;;;;5103167;27;20209;-74
2021/06/29 12:13:13;;;;;;;2.85;2.53;;;20.60;99.90;;;;;;5104317;28;20214;-73
2021/06/29 12:15:43;;;;;;;4.07;2.40;;;20.60;99.90;;;;;;5101082;28;20212;-73
2021/06/29 12:18:11;;;;;;;3.20;2.40;;;20.50;99.90;;;;;;5102780;28;20204;-75
2021/06/29 12:20:40;;;;;;;3.90;2.78;;;20.50;99.90;;;;;;5102572;28;20211;-74
2021/06/29 12:23:09;;;;;;;6.82;3.10;;;20.50;99.90;;;;;;5103795;27;20201;-72
2021/06/29 12:25:39;;;;;;;5.25;3.05;;;20.50;99.90;;;;;;5103930;28;20205;-70
2021/06/29 12:28:11;;;;;;;5.25;3.20;;;20.40;99.90;;;;;;5103261;28;20210;-73
2021/06/29 12:30:44;;;;;;;3.97;3.53;;;20.40;99.90;;;;;;5104715;28;20189;-72
2021/06/29 12:33:22;;;;;;;7.97;4.18;;;20.40;99.90;;;;;;5103388;28;20209;-74
2021/06/29 12:35:52;;;;;;;5.68;3.90;;;20.40;99.90;;;;;;5106094;28;20591;-72
2021/06/29 12:38:20;;;;;;;6.75;4.45;;;20.40;99.90;;;;;;5103628;28;20189;-72
2021/06/29 12:40:50;;;;;;;7.65;5.15;;;20.30;99.90;;;;;;5105359;28;20215;-73
2021/06/29 12:43:30;;;;;;;10.70;5.30;;;20.30;99.90;;;;;;5104862;28;20681;-72